createdAt,value
2022-10-01T00:03:35.321Z,10.41
2022-10-01T00:07:41.731Z,10.54
2022-10-01T00:11:43.164Z,10.53
2022-10-01T00:15:44.654Z,10.56
2022-10-01T00:19:46.031Z,10.63
2022-10-01T00:23:48.400Z,10.76
2022-10-01T00:27:49.887Z,10.63
2022-10-01T00:31:51.357Z,10.65
2022-10-01T00:35:56.420Z,10.52
2022-10-01T00:39:57.836Z,10.45
2022-10-01T00:44:01.628Z,10.64
2022-10-01T00:48:03.140Z,10.67
2022-10-01T00:52:08.803Z,10.79
2022-10-01T00:56:10.385Z,10.76
2022-10-01T01:00:13.752Z,10.66
2022-10-01T01:04:17.803Z,10.74
2022-10-01T01:08:19.381Z,10.74
2022-10-01T01:13:03.112Z,10.66
2022-10-01T01:17:12.571Z,10.49
2022-10-01T01:21:28.181Z,10.78
2022-10-01T01:25:39.804Z,10.79
2022-10-01T01:29:43.474Z,10.75
2022-10-01T01:33:47.976Z,10.64
2022-10-01T01:37:58.409Z,10.72
2022-10-01T01:42:05.180Z,10.81
2022-10-01T01:46:10.548Z,10.70
2022-10-01T01:50:14.459Z,10.51
2022-10-01T01:54:16.909Z,10.73
2022-10-01T01:58:19.730Z,10.77
2022-10-01T02:02:26.854Z,10.72
2022-10-01T02:07:09.526Z,10.78
2022-10-01T02:11:38.046Z,10.64
2022-10-01T02:15:48.618Z,10.68
2022-10-01T02:19:57.109Z,10.72
2022-10-01T02:24:40.657Z,10.54
2022-10-01T02:28:42.894Z,10.54
2022-10-01T02:32:46.791Z,10.70
2022-10-01T02:36:49.699Z,10.77
2022-10-01T02:40:56.029Z,10.68
2022-10-01T02:45:02.381Z,10.75
2022-10-01T02:49:04.400Z,10.55
2022-10-01T02:53:10.373Z,10.70
2022-10-01T02:57:26.849Z,10.80
2022-10-01T03:01:28.332Z,10.58
2022-10-01T03:05:29.850Z,10.74
2022-10-01T03:09:32.459Z,10.65
2022-10-01T03:13:34.298Z,10.64
2022-10-01T03:17:37.168Z,10.46
2022-10-01T03:21:38.599Z,10.59
2022-10-01T03:25:39.990Z,10.46
2022-10-01T03:29:41.436Z,10.55
2022-10-01T03:33:42.849Z,10.37
2022-10-01T03:37:44.307Z,10.64
2022-10-01T03:41:46.087Z,10.59
2022-10-01T03:45:47.606Z,10.67
2022-10-01T03:49:49.104Z,10.77
2022-10-01T03:53:50.527Z,10.82
2022-10-01T03:57:52.095Z,10.75
2022-10-01T04:01:54.412Z,10.69
2022-10-01T04:05:56.082Z,10.66
2022-10-01T04:09:57.506Z,10.74
2022-10-01T04:13:59.021Z,10.65
2022-10-01T04:18:03.664Z,10.72
2022-10-01T04:22:05.053Z,10.70
2022-10-01T04:26:07.509Z,10.80
2022-10-01T04:30:10.163Z,10.70
2022-10-01T04:34:11.624Z,10.70
2022-10-01T04:38:17.104Z,10.85
2022-10-01T04:42:19.048Z,10.87
2022-10-01T04:46:20.601Z,10.75
2022-10-01T04:50:24.553Z,10.80
2022-10-01T04:54:25.997Z,10.91
2022-10-01T04:58:27.449Z,10.79
2022-10-01T05:02:29.335Z,10.80
2022-10-01T05:06:30.823Z,10.95
2022-10-01T05:10:32.287Z,10.85
2022-10-01T05:14:34.013Z,10.99
2022-10-01T05:18:35.439Z,10.84
2022-10-01T05:22:36.867Z,10.83
2022-10-01T05:26:38.881Z,10.98
2022-10-01T05:30:40.292Z,11.06
2022-10-01T05:34:41.697Z,11.02
2022-10-01T05:38:43.298Z,11.17
2022-10-01T05:42:47.939Z,11.28
2022-10-01T05:46:50.440Z,11.08
2022-10-01T05:50:51.937Z,11.03
2022-10-01T05:54:53.600Z,11.31
2022-10-01T05:58:55.054Z,11.49
2022-10-01T06:03:00.993Z,11.44
2022-10-01T06:07:02.500Z,11.29
2022-10-01T06:11:04.479Z,11.52
2022-10-01T06:15:06.393Z,11.66
2022-10-01T06:19:07.856Z,11.54
2022-10-01T06:23:12.363Z,11.70
2022-10-01T06:27:13.930Z,11.83
2022-10-01T06:31:15.406Z,11.64
2022-10-01T06:35:16.833Z,11.86
2022-10-01T06:39:18.311Z,11.85
2022-10-01T06:43:19.922Z,11.87
2022-10-01T06:47:21.517Z,11.96
2022-10-01T06:51:43.079Z,12.02
2022-10-01T06:55:46.112Z,11.90
2022-10-01T06:59:47.599Z,12.05
2022-10-01T07:03:49.016Z,12.13
2022-10-01T07:07:51.001Z,12.21
2022-10-01T07:11:53.082Z,12.34
2022-10-01T07:15:54.501Z,12.24
2022-10-01T07:19:55.909Z,12.49
2022-10-01T07:23:57.354Z,12.47
2022-10-01T07:28:04.500Z,12.63
2022-10-01T07:32:08.757Z,12.48
2022-10-01T07:36:12.972Z,12.62
2022-10-01T07:40:16.383Z,12.48
2022-10-01T07:44:18.911Z,12.61
2022-10-01T07:48:20.413Z,12.54
2022-10-01T07:52:21.930Z,12.52
2022-10-01T07:56:23.395Z,12.58
2022-10-01T08:00:26.871Z,12.44
2022-10-01T08:04:46.911Z,12.48
2022-10-01T08:08:48.424Z,12.21
2022-10-01T08:12:49.926Z,12.38
2022-10-01T08:16:51.422Z,12.40
2022-10-01T08:20:52.896Z,12.43
2022-10-01T08:24:54.561Z,12.48
2022-10-01T08:28:56.068Z,12.41
2022-10-01T08:32:59.796Z,12.70
2022-10-01T08:37:01.518Z,12.65
2022-10-01T08:41:23.372Z,12.67
2022-10-01T08:45:47.264Z,12.76
2022-10-01T08:49:53.586Z,12.81
2022-10-01T08:54:16.985Z,12.89
2022-10-01T08:58:29.280Z,12.74
2022-10-01T09:02:33.695Z,12.71
2022-10-01T09:06:37.644Z,12.58
2022-10-01T09:10:45.595Z,12.39
2022-10-01T09:15:21.689Z,12.25
2022-10-01T09:19:54.168Z,12.39
2022-10-01T09:24:04.105Z,12.22
2022-10-01T09:28:16.396Z,12.25
2022-10-01T09:32:23.584Z,12.32
2022-10-01T09:36:46.724Z,12.45
2022-10-01T09:40:58.301Z,12.46
2022-10-01T09:44:59.935Z,12.52
2022-10-01T09:49:20.062Z,12.51
2022-10-01T09:53:25.039Z,12.40
2022-10-01T09:57:33.570Z,12.48
2022-10-01T10:01:46.133Z,12.48
2022-10-01T10:05:49.208Z,12.46
2022-10-01T10:09:52.252Z,12.41
2022-10-01T10:14:03.764Z,12.34
2022-10-01T10:18:08.956Z,12.32
2022-10-01T10:22:13.408Z,12.15
2022-10-01T10:26:20.889Z,12.05
2022-10-01T10:30:26.269Z,11.83
2022-10-01T10:34:33.686Z,11.75
2022-10-01T10:38:35.646Z,11.95
2022-10-01T10:42:38.785Z,11.99
2022-10-01T10:46:45.328Z,12.08
2022-10-01T10:50:47.561Z,12.18
2022-10-01T10:54:50.936Z,12.17
2022-10-01T10:58:53.696Z,12.23
2022-10-01T11:02:58.764Z,12.30
2022-10-01T11:07:03.442Z,12.10
2022-10-01T11:11:13.970Z,12.22
2022-10-01T11:15:22.755Z,12.10
2022-10-01T11:19:33.879Z,12.22
2022-10-01T11:24:09.393Z,12.16
2022-10-01T11:28:28.445Z,12.26
2022-10-01T11:32:35.626Z,12.24
2022-10-01T11:36:56.097Z,12.14
2022-10-01T11:41:19.772Z,12.23
2022-10-01T11:45:26.755Z,12.27
2022-10-01T11:49:45.197Z,12.36
2022-10-01T11:53:54.914Z,12.47
2022-10-01T11:58:17.358Z,12.68
2022-10-01T12:02:39.624Z,12.66
2022-10-01T12:06:52.207Z,12.68
2022-10-01T12:10:59.972Z,12.67
2022-10-01T12:15:20.075Z,12.48
2022-10-01T12:19:24.912Z,12.60
2022-10-01T12:23:30.673Z,12.52
2022-10-01T12:27:41.211Z,12.64
2022-10-01T12:31:50.588Z,12.46
2022-10-01T12:36:07.660Z,12.44
2022-10-01T12:40:11.993Z,12.39
2022-10-01T12:44:33.572Z,12.43
2022-10-01T12:48:57.879Z,12.74
2022-10-01T12:53:24.760Z,12.69
2022-10-01T12:57:54.285Z,12.74
2022-10-01T13:02:39.369Z,12.71
2022-10-01T13:07:13.012Z,12.88
2022-10-01T13:11:20.489Z,12.96
2022-10-01T13:15:31.864Z,12.94
2022-10-01T13:19:48.049Z,13.15
2022-10-01T13:24:01.350Z,13.46
2022-10-01T13:28:12.477Z,13.47
2022-10-01T13:32:27.578Z,13.79
2022-10-01T13:36:34.911Z,13.82
2022-10-01T13:40:36.589Z,13.94
2022-10-01T13:44:40.659Z,14.04
2022-10-01T13:48:47.944Z,14.35
2022-10-01T13:52:51.096Z,14.18
2022-10-01T13:56:52.529Z,14.18
2022-10-01T14:00:56.280Z,14.39
2022-10-01T14:05:07.974Z,14.70
2022-10-01T14:09:20.079Z,14.79
2022-10-01T14:13:40.240Z,14.86
2022-10-01T14:17:43.348Z,15.08
2022-10-01T14:22:02.879Z,15.31
2022-10-01T14:26:18.050Z,15.37
2022-10-01T14:30:38.061Z,15.38
2022-10-01T14:35:01.368Z,15.57
2022-10-01T14:39:23.366Z,15.73
2022-10-01T14:43:30.092Z,15.99
2022-10-01T14:47:35.574Z,15.95
2022-10-01T14:51:52.677Z,16.17
2022-10-01T14:55:57.812Z,16.26
2022-10-01T15:00:01.821Z,16.06
2022-10-01T15:04:14.443Z,15.97
2022-10-01T15:08:24.756Z,15.99
2022-10-01T15:12:26.205Z,16.09
2022-10-01T15:16:28.789Z,16.15
2022-10-01T15:20:30.638Z,16.07
2022-10-01T15:24:45.373Z,15.99
2022-10-01T15:28:46.950Z,15.85
2022-10-01T15:32:49.909Z,15.66
2022-10-01T15:36:53.127Z,15.71
2022-10-01T15:41:13.945Z,15.69
2022-10-01T15:45:38.782Z,15.75
2022-10-01T15:50:12.424Z,15.59
2022-10-01T15:54:35.214Z,15.42
2022-10-01T15:59:11.150Z,15.38
2022-10-01T16:03:36.036Z,15.30
2022-10-01T16:07:58.183Z,15.06
2022-10-01T16:12:04.349Z,14.88
2022-10-01T16:16:17.303Z,15.03
2022-10-01T16:20:21.584Z,14.90
2022-10-01T16:24:28.395Z,14.79
2022-10-01T16:28:33.116Z,14.89
2022-10-01T16:32:34.962Z,14.82
2022-10-01T16:36:38.200Z,14.72
2022-10-01T16:40:44.704Z,14.72
2022-10-01T16:44:46.176Z,14.72
2022-10-01T16:48:49.589Z,14.72
2022-10-01T16:52:55.668Z,14.58
2022-10-01T16:56:59.130Z,14.60
2022-10-01T17:01:06.539Z,14.53
2022-10-01T17:05:29.405Z,14.37
2022-10-01T17:09:31.167Z,14.23
2022-10-01T17:13:33.836Z,14.24
2022-10-01T17:17:35.339Z,14.15
2022-10-01T17:21:36.767Z,14.12
2022-10-01T17:25:39.491Z,14.25
2022-10-01T17:29:40.919Z,13.76
2022-10-01T17:33:42.921Z,13.14
2022-10-01T17:37:44.348Z,13.29
2022-10-01T17:41:45.917Z,13.62
2022-10-01T17:45:55.749Z,13.94
2022-10-01T17:49:58.257Z,14.05
2022-10-01T17:54:02.416Z,14.17
2022-10-01T17:58:04.110Z,14.10
2022-10-01T18:02:23.674Z,14.32
2022-10-01T18:06:29.435Z,14.36
2022-10-01T18:10:30.849Z,14.23
2022-10-01T18:14:32.319Z,14.38
2022-10-01T18:22:55.808Z,14.45
2022-10-01T18:26:57.219Z,14.40
2022-10-01T18:31:10.714Z,14.59
2022-10-01T18:35:25.113Z,14.56
2022-10-01T18:39:44.784Z,14.38
2022-10-01T18:43:46.802Z,14.31
2022-10-01T18:47:58.744Z,14.38
2022-10-01T18:52:17.725Z,14.34
2022-10-01T18:56:34.577Z,14.36
2022-10-01T19:00:54.214Z,14.19
2022-10-01T19:05:14.568Z,14.26
2022-10-01T19:09:21.620Z,14.26
2022-10-01T19:13:57.068Z,14.22
2022-10-01T19:18:24.063Z,14.08
2022-10-01T19:22:53.029Z,14.16
2022-10-01T19:27:27.948Z,14.10
2022-10-01T19:31:54.163Z,14.09
2022-10-01T19:35:59.364Z,14.12
2022-10-01T19:40:12.988Z,14.12
2022-10-01T19:44:44.780Z,14.04
2022-10-01T19:49:13.157Z,13.95
2022-10-01T19:53:22.923Z,14.05
2022-10-01T19:57:29.371Z,14.01
2022-10-01T20:01:45.197Z,14.12
2022-10-01T20:05:52.971Z,13.94
2022-10-01T20:10:09.387Z,14.01
2022-10-01T20:14:44.881Z,13.95
2022-10-01T20:19:11.135Z,13.92
2022-10-01T20:23:38.205Z,14.03
2022-10-01T20:27:49.282Z,14.00
2022-10-01T20:32:13.821Z,14.06
2022-10-01T20:36:27.606Z,13.94
2022-10-01T20:40:35.069Z,13.99
2022-10-01T20:44:38.078Z,13.91
2022-10-01T20:48:44.524Z,14.00
2022-10-01T20:53:24.793Z,14.05
2022-10-01T20:57:38.102Z,14.01
2022-10-01T21:01:50.458Z,13.98
2022-10-01T21:06:03.281Z,13.77
2022-10-01T21:10:17.043Z,13.81
2022-10-01T21:14:21.858Z,13.85
2022-10-01T21:18:47.870Z,13.81
2022-10-01T21:23:22.860Z,13.93
2022-10-01T21:27:36.653Z,13.90
2022-10-01T21:31:51.043Z,14.02
2022-10-01T21:36:01.243Z,13.95
2022-10-01T21:40:17.561Z,13.98
2022-10-01T21:44:46.254Z,13.94
2022-10-01T21:49:07.388Z,13.89
2022-10-01T21:53:37.658Z,13.91
2022-10-01T21:58:01.555Z,13.77
2022-10-01T22:02:24.230Z,13.79
2022-10-01T22:06:37.840Z,13.57
2022-10-01T22:10:45.482Z,13.64
2022-10-01T22:14:51.320Z,13.44
2022-10-01T22:18:59.979Z,13.42
2022-10-01T22:23:08.542Z,13.43
2022-10-01T22:27:48.626Z,13.49
2022-10-01T22:31:56.326Z,13.36
2022-10-01T22:36:06.572Z,13.26
2022-10-01T22:40:24.566Z,13.24
2022-10-01T22:44:27.669Z,13.19
2022-10-01T22:49:00.036Z,13.18
2022-10-01T22:53:23.240Z,13.17
2022-10-01T22:57:27.728Z,13.26
2022-10-01T23:02:00.023Z,13.20
2022-10-01T23:06:35.219Z,13.19
2022-10-01T23:11:03.004Z,13.27
2022-10-01T23:15:04.437Z,13.28
2022-10-01T23:19:41.375Z,13.29
2022-10-01T23:23:54.237Z,13.26
2022-10-01T23:28:16.261Z,13.30
2022-10-01T23:33:12.801Z,13.35
2022-10-01T23:37:37.301Z,13.34
2022-10-01T23:41:49.047Z,13.29
2022-10-01T23:46:07.125Z,13.31
2022-10-01T23:50:20.523Z,13.25
2022-10-01T23:54:44.528Z,13.20
2022-10-01T23:58:56.187Z,13.16
